Time;durP1;ratioP1;P1;durP2;ratioP2;P2;SDS_P1;SDS_P2;PMS_P1;PMS_P2;Temp;Humidity;BMP_temperature;BMP_pressure;BME280_temperature;BME280_humidity;BME280_pressure;Samples;Min_cycle;Max_cycle;Signal;HPM_P1;HPM_P2
2021/01/30 00:02:25;;;;;;;31.42;12.15;;;;;;;-1.50;88.92;99591.31;5132962;27;20241;-55
2021/01/30 00:04:52;;;;;;;22.23;10.35;;;;;;;-1.29;89.12;99596.13;5138243;27;20285;-54
2021/01/30 00:07:18;;;;;;;23.05;11.18;;;;;;;-1.39;88.61;99593.72;5129569;27;20230;-56
2021/01/30 00:09:45;;;;;;;23.70;10.48;;;;;;;-1.49;89.17;99589.63;5138182;27;20201;-56
2021/01/30 00:12:12;;;;;;;46.92;19.08;;;;;;;-1.46;89.38;99594.94;5136489;27;20233;-55
2021/01/30 00:14:39;;;;;;;33.47;15.05;;;;;;;-1.51;89.77;99596.25;5137856;27;20199;-54
2021/01/30 00:17:08;;;;;;;28.98;12.35;;;;;;;-1.39;89.67;99598.78;5136537;27;20222;-54
2021/01/30 00:19:36;;;;;;;22.52;9.55;;;;;;;-1.39;89.88;99596.25;5138137;27;20536;-57
2021/01/30 00:22:06;;;;;;;19.83;9.05;;;;;;;-1.18;89.56;99601.06;5132192;27;20600;-53
2021/01/30 00:24:33;;;;;;;34.78;14.88;;;;;;;-1.26;89.70;99608.13;5137677;27;20603;-56
2021/01/30 00:27:03;;;;;;;26.33;12.23;;;;;;;-1.18;90.60;99611.19;5136305;27;20566;-54
2021/01/30 00:29:32;;;;;;;23.38;10.43;;;;;;;-1.11;89.60;99610.84;5138044;27;20198;-55
2021/01/30 00:32:00;;;;;;;23.70;11.95;;;;;;;-1.19;89.85;99614.50;5135571;27;20247;-57
2021/01/30 00:34:31;;;;;;;27.92;11.77;;;;;;;-1.32;89.95;99613.63;5137498;27;20199;-55
2021/01/30 00:37:01;;;;;;;55.40;22.00;;;;;;;-1.33;90.62;99614.41;5136104;27;20527;-57
2021/01/30 00:39:28;;;;;;;34.83;15.50;;;;;;;-1.32;90.63;99608.56;5137476;27;20632;-55
2021/01/30 00:41:55;;;;;;;23.08;10.63;;;;;;;-1.25;90.22;99610.75;5135822;27;20581;-54
2021/01/30 00:44:21;;;;;;;19.13;9.43;;;;;;;-1.28;90.20;99617.25;5137399;27;20226;-57
2021/01/30 00:46:49;;;;;;;27.52;11.82;;;;;;;-1.32;90.60;99615.28;5136117;27;20226;-58
2021/01/30 00:49:16;;;;;;;19.45;9.38;;;;;;;-1.19;90.31;99614.50;5137434;27;20223;-57
2021/01/30 00:51:43;;;;;;;20.83;9.27;;;;;;;-1.28;90.41;99620.66;5137356;27;20203;-55
2021/01/30 00:54:10;;;;;;;21.25;10.48;;;;;;;-1.18;90.75;99619.66;5134462;27;20234;-56
2021/01/30 00:56:37;;;;;;;20.63;9.32;;;;;;;-1.25;90.88;99618.34;5137380;27;20218;-55
2021/01/30 00:59:03;;;;;;;21.45;10.52;;;;;;;-1.04;90.88;99627.38;5135398;27;20280;-56
2021/01/30 01:01:36;;;;;;;22.77;11.05;;;;;;;-0.93;90.49;99633.16;5137495;27;20206;-56
2021/01/30 01:04:04;;;;;;;59.75;24.02;;;;;;;-0.88;91.61;99642.84;5130498;27;20260;-57
2021/01/30 01:06:31;;;;;;;26.38;11.75;;;;;;;-0.96;91.03;99639.75;5137303;27;20244;-58
2021/01/30 01:09:01;;;;;;;27.17;12.55;;;;;;;-1.00;90.93;99642.88;5135521;27;20644;-55
2021/01/30 01:11:28;;;;;;;21.67;10.27;;;;;;;-1.04;91.11;99640.88;5137431;27;20195;-55
2021/01/30 01:13:55;;;;;;;21.42;10.20;;;;;;;-0.98;90.95;99642.94;5135410;27;20242;-57
2021/01/30 01:16:22;;;;;;;24.73;11.15;;;;;;;-1.14;91.07;99648.59;5136905;27;20218;-53
2021/01/30 01:18:49;;;;;;;33.53;14.48;;;;;;;-0.94;91.17;99651.69;5134611;27;20578;-56
2021/01/30 01:21:16;;;;;;;21.77;10.02;;;;;;;-1.08;91.29;99649.03;5137098;27;20512;-56
2021/01/30 01:23:43;;;;;;;24.50;11.63;;;;;;;-1.10;91.51;99655.66;5135358;27;20238;-55
2021/01/30 01:26:13;;;;;;;73.20;28.42;;;;;;;-0.88;92.18;99657.16;5136293;28;20250;-58
2021/01/30 01:28:40;;;;;;;18.02;8.68;;;;;;;-0.99;91.20;99658.94;5135385;28;20266;-55
2021/01/30 01:31:07;;;;;;;29.88;12.63;;;;;;;-1.06;91.62;99657.63;5136973;28;20206;-58
2021/01/30 01:33:34;;;;;;;25.88;11.73;;;;;;;-1.00;91.75;99664.75;5135079;28;20245;-55
2021/01/30 01:36:01;;;;;;;56.05;24.15;;;;;;;-0.82;92.60;99665.19;5136317;28;20651;-56
2021/01/30 01:38:28;;;;;;;80.22;33.45;;;;;;;-0.70;91.29;99667.69;5135033;28;20640;-55
2021/01/30 01:40:55;;;;;;;34.47;15.57;;;;;;;-0.87;91.22;99679.19;5136875;28;20222;-56
2021/01/30 01:43:24;;;;;;;27.27;11.30;;;;;;;-0.97;91.15;99676.00;5135318;28;20230;-55
2021/01/30 01:46:01;;;;;;;62.72;28.40;;;;;;;-0.94;91.33;99674.47;5136431;27;20209;-57
2021/01/30 01:48:30;;;;;;;55.85;23.92;;;;;;;-0.63;91.86;99674.94;5135030;27;20234;-53
2021/01/30 01:50:57;;;;;;;37.55;16.80;;;;;;;-0.65;91.23;99690.81;5136554;28;20205;-57
2021/01/30 01:53:27;;;;;;;24.70;10.50;;;;;;;-0.70;91.02;99695.56;5135082;27;20234;-54
2021/01/30 01:55:55;;;;;;;23.35;11.73;;;;;;;-0.54;91.08;99702.56;5135717;28;20290;-57
2021/01/30 01:58:23;;;;;;;24.67;10.18;;;;;;;-0.58;90.48;99710.72;5134063;28;20635;-58
2021/01/30 02:00:50;;;;;;;21.95;10.73;;;;;;;-0.57;90.55;99709.94;5136422;28;20305;-56
2021/01/30 02:03:17;;;;;;;20.70;10.40;;;;;;;-0.73;89.92;99703.81;5134952;28;20313;-57
2021/01/30 02:05:45;;;;;;;24.15;11.10;;;;;;;-0.73;90.04;99713.97;5135968;28;20604;-57
2021/01/30 02:08:14;;;;;;;105.32;38.63;;;;;;;-0.50;90.53;99717.22;5128600;27;20635;-57
2021/01/30 02:10:42;;;;;;;22.80;11.27;;;;;;;-0.48;89.43;99715.66;5136604;28;20207;-58
2021/01/30 02:13:13;;;;;;;27.10;13.82;;;;;;;-0.62;89.52;99719.78;5135225;28;20239;-56
2021/01/30 02:15:43;;;;;;;30.98;12.93;;;;;;;-0.44;89.02;99717.66;5135672;28;20195;-57
2021/01/30 02:18:19;;;;;;;33.30;14.13;;;;;;;-0.53;89.03;99716.13;5133507;28;20233;-56
2021/01/30 02:21:07;;;;;;;24.90;12.40;;;;;;;-0.63;89.72;99715.47;5135344;28;20193;-57
2021/01/30 02:24:06;;;;;;;54.67;22.60;;;;;;;-0.42;89.99;99721.16;5114350;28;20327;-58
2021/01/30 02:27:00;;;;;;;52.95;23.02;;;;;;;-0.29;89.28;99716.94;5124473;28;20257;-57
2021/01/30 02:29:52;;;;;;;41.80;17.67;;;;;;;-0.36;88.61;99724.91;5135621;28;20226;-57
2021/01/30 02:32:28;;;;;;;36.45;15.25;;;;;;;-0.48;88.39;99725.81;5139310;27;20230;-54
2021/01/30 02:35:23;;;;;;;23.52;11.70;;;;;;;-0.49;88.34;99729.13;5139706;27;20194;-58
2021/01/30 02:37:57;;;;;;;64.95;27.00;;;;;;;-0.40;89.16;99733.94;5100773;27;20234;-57
2021/01/30 02:40:25;;;;;;;31.90;15.05;;;;;;;-0.61;88.27;99729.13;5139671;27;20226;-57
2021/01/30 02:42:56;;;;;;;39.78;17.90;;;;;;;-0.57;89.21;99735.28;5138282;27;20309;-61
2021/01/30 02:45:25;;;;;;;33.03;15.02;;;;;;;-0.49;88.98;99735.84;5139689;27;20203;-57
2021/01/30 02:47:56;;;;;;;40.25;18.48;;;;;;;-0.67;89.36;99743.91;5138820;27;20249;-55
2021/01/30 02:50:26;;;;;;;27.52;13.73;;;;;;;-0.69;88.67;99738.75;5139928;27;20260;-54
2021/01/30 02:52:57;;;;;;;26.23;12.68;;;;;;;-0.70;88.97;99749.66;5137436;27;20674;-56
2021/01/30 02:55:24;;;;;;;33.30;15.00;;;;;;;-0.67;88.59;99754.03;5139459;27;20309;-54
2021/01/30 02:57:51;;;;;;;27.48;12.88;;;;;;;-0.75;89.16;99753.53;5137946;27;20305;-57
2021/01/30 03:00:21;;;;;;;27.85;12.25;;;;;;;-0.76;89.08;99759.34;5139155;27;20229;-57
2021/01/30 03:02:48;;;;;;;46.28;19.75;;;;;;;-0.90;89.28;99765.06;5138057;27;20226;-54
2021/01/30 03:05:16;;;;;;;25.85;12.82;;;;;;;-0.89;89.26;99764.28;5139184;27;20210;-56
2021/01/30 03:07:51;;;;;;;53.72;22.02;;;;;;;-0.81;89.40;99765.75;5137700;27;20314;-54
2021/01/30 03:10:26;;;;;;;24.95;11.90;;;;;;;-0.86;89.17;99772.13;5139308;27;20190;-58
2021/01/30 03:13:03;;;;;;;24.17;11.90;;;;;;;-0.78;88.58;99775.22;5137222;27;20309;-55
2021/01/30 03:15:34;;;;;;;28.60;12.88;;;;;;;-0.89;88.10;99776.97;5138891;27;20281;-57
2021/01/30 03:18:03;;;;;;;27.33;12.30;;;;;;;-0.98;88.51;99780.59;5137582;27;20243;-58
2021/01/30 03:20:31;;;;;;;59.78;24.27;;;;;;;-0.70;88.84;99789.31;5139197;27;20218;-55
2021/01/30 03:23:01;;;;;;;29.75;12.82;;;;;;;-0.86;88.36;99783.13;5138115;27;20230;-56
2021/01/30 03:25:30;;;;;;;26.52;12.48;;;;;;;-0.97;87.63;99789.09;5138717;27;20515;-56
2021/01/30 03:27:58;;;;;;;26.20;12.52;;;;;;;-0.91;87.47;99791.19;5137174;27;20234;-56
2021/01/30 03:30:25;;;;;;;29.38;13.20;;;;;;;-0.86;87.41;99792.41;5138772;27;20199;-56
2021/01/30 03:32:54;;;;;;;34.25;15.80;;;;;;;-0.90;87.58;99800.53;5137032;27;20234;-57
2021/01/30 03:35:21;;;;;;;39.08;18.20;;;;;;;-0.80;86.85;99799.53;5138567;27;20210;-56
2021/01/30 03:37:48;;;;;;;25.30;12.50;;;;;;;-0.88;86.72;99799.00;5137044;27;20240;-57
2021/01/30 03:40:17;;;;;;;25.90;12.75;;;;;;;-0.85;86.31;99805.19;5138445;27;20222;-57
2021/01/30 03:42:44;;;;;;;45.55;19.88;;;;;;;-0.85;87.28;99799.22;5136417;27;20539;-55
2021/01/30 03:45:14;;;;;;;55.67;24.35;;;;;;;-0.74;87.36;99808.47;5137684;27;20193;-52
2021/01/30 03:47:41;;;;;;;26.63;13.18;;;;;;;-0.89;86.55;99817.50;5137088;27;20233;-56
2021/01/30 03:50:09;;;;;;;22.10;11.23;;;;;;;-0.86;86.78;99817.72;5138604;27;20191;-58
2021/01/30 03:52:36;;;;;;;63.50;27.45;;;;;;;-0.84;87.56;99818.69;5136736;27;20237;-55
2021/01/30 03:55:04;;;;;;;27.52;13.00;;;;;;;-0.77;87.08;99820.91;5138303;27;20234;-57
2021/01/30 03:57:30;;;;;;;41.47;16.33;;;;;;;-0.91;86.65;99819.03;5136877;27;20240;-54
2021/01/30 03:59:58;;;;;;;134.52;54.28;;;;;;;-0.71;88.24;99820.50;5138182;27;20654;-54
2021/01/30 04:02:25;;;;;;;40.50;19.25;;;;;;;-0.84;87.07;99822.13;5137053;27;20234;-51
2021/01/30 04:04:52;;;;;;;29.15;13.55;;;;;;;-1.05;86.53;99833.22;5137316;27;20485;-53
2021/01/30 04:07:19;;;;;;;30.13;14.45;;;;;;;-1.07;86.97;99828.06;5135855;27;20313;-57
2021/01/30 04:09:47;;;;;;;28.90;14.30;;;;;;;-1.10;86.96;99826.19;5138016;27;20201;-57
2021/01/30 04:12:14;;;;;;;30.60;14.02;;;;;;;-1.27;87.12;99829.13;5136285;27;20226;-57
2021/01/30 04:14:41;;;;;;;35.78;16.58;;;;;;;-1.16;87.20;99833.31;5137631;27;20195;-57
2021/01/30 04:17:09;;;;;;;31.25;14.00;;;;;;;-1.11;87.57;99836.19;5136008;27;20678;-54
2021/01/30 04:19:37;;;;;;;32.60;15.27;;;;;;;-0.96;87.30;99847.44;5137399;27;20275;-56
2021/01/30 04:22:04;;;;;;;37.70;18.20;;;;;;;-1.15;87.11;99844.31;5133650;27;20294;-57
2021/01/30 04:24:31;;;;;;;51.38;22.08;;;;;;;-0.99;87.23;99848.84;5137357;27;20199;-56
2021/01/30 04:26:58;;;;;;;29.02;14.07;;;;;;;-1.16;87.29;99853.59;5124520;27;20215;-56
2021/01/30 04:29:25;;;;;;;36.28;16.58;;;;;;;-1.00;88.32;99852.16;5136478;27;20222;-55
2021/01/30 04:31:55;;;;;;;34.53;16.17;;;;;;;-1.29;87.70;99851.78;5135620;27;20198;-54
2021/01/30 04:34:23;;;;;;;37.15;16.63;;;;;;;-1.31;88.11;99858.38;5136796;27;20238;-55
2021/01/30 04:36:49;;;;;;;107.45;40.95;;;;;;;-0.95;90.32;99853.38;5135818;27;20310;-57
2021/01/30 04:39:16;;;;;;;31.00;14.85;;;;;;;-1.17;87.62;99856.00;5137132;27;20226;-55
2021/01/30 04:41:49;;;;;;;46.40;20.17;;;;;;;-1.08;88.44;99849.06;5137109;27;20305;-56
2021/01/30 04:44:19;;;;;;;32.50;15.45;;;;;;;-1.11;87.32;99851.38;5133320;27;20230;-56
2021/01/30 04:46:53;;;;;;;30.60;15.18;;;;;;;-1.10;87.53;99853.13;5137052;27;20765;-55
2021/01/30 04:49:27;;;;;;;40.65;16.35;;;;;;;-0.98;87.67;99854.03;5136843;27;20224;-57
2021/01/30 04:51:59;;;;;;;29.83;14.07;;;;;;;-1.12;87.88;99852.16;5135336;27;20491;-54
2021/01/30 04:54:35;;;;;;;31.00;13.85;;;;;;;-1.14;87.31;99854.56;5135725;27;20202;-54
2021/01/30 04:57:14;;;;;;;35.45;14.95;;;;;;;-1.10;87.16;99855.69;5135358;27;20224;-55
2021/01/30 04:59:49;;;;;;;29.30;14.02;;;;;;;-1.10;87.16;99859.09;5136573;27;20246;-57
2021/01/30 05:02:22;;;;;;;37.25;15.88;;;;;;;-0.94;87.45;99855.16;5135476;27;20321;-57
2021/01/30 05:04:52;;;;;;;31.17;15.05;;;;;;;-1.12;86.86;99859.75;5136729;27;20207;-55
2021/01/30 05:07:23;;;;;;;33.50;14.52;;;;;;;-1.10;86.98;99850.59;5135040;27;20230;-56
2021/01/30 05:09:53;;;;;;;40.22;18.02;;;;;;;-1.01;87.54;99853.84;5136622;27;20199;-54
2021/01/30 05:12:23;;;;;;;42.35;18.58;;;;;;;-0.99;86.64;99847.22;5135087;27;20528;-58
2021/01/30 05:14:55;;;;;;;42.08;16.05;;;;;;;-1.28;87.17;99857.72;5136637;27;20226;-54
2021/01/30 05:17:25;;;;;;;32.97;15.00;;;;;;;-1.35;87.96;99853.84;5135026;27;20313;-56
2021/01/30 05:19:57;;;;;;;37.05;16.30;;;;;;;-1.32;88.03;99856.63;5136263;27;20237;-56
2021/01/30 05:22:33;;;;;;;62.85;28.13;;;;;;;-1.20;89.07;99863.34;5135080;27;20236;-55
2021/01/30 05:25:00;;;;;;;55.10;22.63;;;;;;;-1.25;88.83;99863.91;5136489;27;20201;-57
2021/01/30 05:27:54;;;;;;;37.95;17.75;;;;;;;-1.25;88.37;99871.50;5135164;27;20230;-57
2021/01/30 05:30:28;;;;;;;39.25;16.63;;;;;;;-1.17;88.89;99869.53;5117942;28;20624;-58
2021/01/30 05:33:06;;;;;;;36.05;14.80;;;;;;;-1.31;88.33;99871.03;5134608;27;20233;-56
2021/01/30 05:35:37;;;;;;;30.50;13.40;;;;;;;-1.18;88.54;99869.44;5136419;28;20202;-57
2021/01/30 05:38:08;;;;;;;34.80;15.73;;;;;;;-1.19;87.78;99865.13;5134304;27;20231;-57
2021/01/30 05:40:39;;;;;;;40.40;17.33;;;;;;;-1.18;88.60;99866.91;5136243;27;20221;-56
2021/01/30 05:43:17;;;;;;;34.00;14.77;;;;;;;-1.19;87.13;99870.19;5135160;28;20299;-58
2021/01/30 05:45:46;;;;;;;33.28;14.38;;;;;;;-1.60;88.31;99869.72;5135901;28;20289;-57
2021/01/30 05:48:14;;;;;;;30.10;13.75;;;;;;;-1.58;88.76;99878.31;5134614;28;20579;-57
2021/01/30 05:50:47;;;;;;;31.08;14.35;;;;;;;-1.46;88.54;99890.13;5136469;28;20289;-57
2021/01/30 05:53:20;;;;;;;34.97;16.88;;;;;;;-1.43;88.52;99887.81;5133574;28;20239;-54
2021/01/30 05:55:46;;;;;;;32.42;14.73;;;;;;;-1.51;88.39;99888.13;5136117;28;20226;-56
2021/01/30 05:58:15;;;;;;;42.90;18.05;;;;;;;-1.52;88.16;99893.97;5134612;28;20244;-56
2021/01/30 06:00:42;;;;;;;25.35;13.60;;;;;;;-1.48;86.96;99901.78;5135597;28;20329;-56
2021/01/30 06:03:11;;;;;;;35.53;13.98;;;;;;;-1.55;87.35;99897.88;5134221;28;20274;-57
2021/01/30 06:05:40;;;;;;;35.38;14.50;;;;;;;-1.56;87.46;99902.06;5137460;27;20238;-55
2021/01/30 06:08:11;;;;;;;28.95;12.40;;;;;;;-1.79;87.47;99898.66;5138548;27;20248;-57
2021/01/30 06:10:38;;;;;;;30.13;14.48;;;;;;;-1.71;87.85;99903.41;5140183;27;20590;-52
2021/01/30 06:13:13;;;;;;;29.27;13.05;;;;;;;-1.86;88.09;99904.00;5138687;27;20245;-56
2021/01/30 06:15:42;;;;;;;30.85;13.10;;;;;;;-1.84;88.00;99910.06;5139823;27;20512;-57
2021/01/30 06:18:29;;;;;;;27.98;12.00;;;;;;;-1.80;89.21;99906.16;5138255;27;20537;-55
2021/01/30 06:20:59;;;;;;;25.42;11.88;;;;;;;-1.99;87.85;99914.81;5140141;27;20244;-55
2021/01/30 06:23:27;;;;;;;30.85;13.27;;;;;;;-1.81;88.34;99914.47;5139205;27;20238;-57
2021/01/30 06:26:04;;;;;;;26.85;12.75;;;;;;;-2.12;87.87;99923.06;5139532;27;20517;-54
2021/01/30 06:28:32;;;;;;;21.80;10.70;;;;;;;-2.06;87.58;99918.50;5137712;27;20236;-55
2021/01/30 06:31:10;;;;;;;30.13;13.05;;;;;;;-1.94;87.01;99932.88;5139796;27;20289;-56
2021/01/30 06:33:43;;;;;;;26.40;12.45;;;;;;;-1.96;86.76;99934.38;5139051;27;20230;-55
2021/01/30 06:36:13;;;;;;;25.17;11.65;;;;;;;-2.14;86.76;99938.88;5139365;27;20505;-57
2021/01/30 06:38:42;;;;;;;27.63;12.60;;;;;;;-1.99;87.36;99942.63;5137962;27;20258;-56
2021/01/30 06:41:18;;;;;;;24.65;10.43;;;;;;;-2.05;86.02;99942.16;5139450;27;20264;-56
2021/01/30 06:43:46;;;;;;;25.92;11.50;;;;;;;-1.95;85.88;99946.28;5138154;27;20238;-54
2021/01/30 06:46:16;;;;;;;26.80;11.57;;;;;;;-2.02;86.47;99949.09;5139136;27;20215;-57
2021/01/30 06:48:45;;;;;;;23.25;10.93;;;;;;;-2.15;86.66;99952.28;5137883;27;20240;-55
2021/01/30 06:51:22;;;;;;;21.27;10.00;;;;;;;-2.10;86.11;99951.88;5139776;27;20590;-56
2021/01/30 06:53:50;;;;;;;25.30;12.35;;;;;;;-1.97;86.08;99947.78;5137676;27;20640;-55
2021/01/30 06:56:19;;;;;;;17.63;9.15;;;;;;;-1.97;85.18;99957.91;5138943;27;20330;-55
2021/01/30 06:58:48;;;;;;;22.08;11.02;;;;;;;-1.88;84.51;99956.13;5137678;27;20236;-56
2021/01/30 07:01:16;;;;;;;18.95;9.10;;;;;;;-2.00;84.64;99960.22;5139028;27;20230;-58
2021/01/30 07:04:02;;;;;;;18.92;8.95;;;;;;;-2.10;84.58;99961.13;5138420;27;20230;-55
2021/01/30 07:06:32;;;;;;;20.45;9.60;;;;;;;-2.38;85.53;99961.41;5139187;27;20317;-55
2021/01/30 07:09:08;;;;;;;20.15;10.50;;;;;;;-2.54;86.60;99962.72;5137435;27;20249;-56
2021/01/30 07:11:49;;;;;;;19.58;9.23;;;;;;;-2.34;85.78;99965.97;5139101;27;20289;-53
2021/01/30 07:14:26;;;;;;;19.50;10.43;;;;;;;-2.29;85.14;99969.75;5133816;27;20673;-55
2021/01/30 07:16:57;;;;;;;23.27;10.70;;;;;;;-2.34;85.49;99976.09;5136509;27;20218;-57
2021/01/30 07:19:32;;;;;;;19.88;8.90;;;;;;;-2.49;85.94;99975.72;5138768;27;20670;-55
2021/01/30 07:22:02;;;;;;;18.88;8.85;;;;;;;-2.55;86.29;99980.28;5136737;27;20259;-56
2021/01/30 07:24:33;;;;;;;23.23;10.80;;;;;;;-2.48;86.73;99978.38;5138402;27;20206;-55
2021/01/30 07:27:03;;;;;;;19.30;9.50;;;;;;;-2.47;86.21;99986.81;5137053;27;20533;-56
2021/01/30 07:29:39;;;;;;;19.60;8.93;;;;;;;-2.31;85.80;99992.38;5138956;27;20571;-55
2021/01/30 07:32:12;;;;;;;17.63;8.98;;;;;;;-2.15;85.87;99986.03;5137677;27;20242;-57
2021/01/30 07:34:52;;;;;;;24.63;9.75;;;;;;;-2.24;85.20;99988.72;5137561;27;20202;-57
2021/01/30 07:37:21;;;;;;;27.17;11.40;;;;;;;-2.19;85.45;99997.53;5137039;27;20534;-54
2021/01/30 07:39:51;;;;;;;21.08;9.68;;;;;;;-2.30;85.13;100000.84;5138274;27;20666;-57
2021/01/30 07:42:20;;;;;;;18.30;8.18;;;;;;;-2.31;85.56;100002.50;5137409;27;20707;-57
2021/01/30 07:45:01;;;;;;;20.88;8.80;;;;;;;-2.23;84.86;99995.53;5138019;27;20199;-58
2021/01/30 07:47:32;;;;;;;18.17;9.00;;;;;;;-2.25;85.23;99989.44;5136657;27;20317;-57
2021/01/30 07:50:04;;;;;;;18.60;9.25;;;;;;;-2.18;85.50;99999.31;5138342;27;20566;-57
2021/01/30 07:52:33;;;;;;;19.48;9.18;;;;;;;-2.28;84.96;99986.69;5136893;27;20234;-57
2021/01/30 07:55:02;;;;;;;21.17;9.90;;;;;;;-2.04;84.44;99986.91;5137711;27;20562;-55
2021/01/30 07:57:51;;;;;;;17.42;8.82;;;;;;;-2.12;84.60;99985.38;5136614;27;20313;-55
2021/01/30 08:00:19;;;;;;;21.83;8.95;;;;;;;-2.21;84.75;99988.09;5137582;27;20529;-56
2021/01/30 08:03:15;;;;;;;21.92;10.23;;;;;;;-2.28;86.06;99991.75;5136491;27;20231;-54
2021/01/30 08:05:47;;;;;;;19.23;10.00;;;;;;;-2.23;85.77;99992.09;5128888;27;20199;-55
2021/01/30 08:08:24;;;;;;;16.60;8.20;;;;;;;-2.29;85.75;99999.19;5136263;27;20245;-56
2021/01/30 08:10:57;;;;;;;19.00;8.35;;;;;;;-2.27;85.57;99997.69;5137681;27;20190;-57
2021/01/30 08:13:42;;;;;;;23.65;9.32;;;;;;;-2.15;85.08;99997.78;5136334;27;20235;-55
2021/01/30 08:16:17;;;;;;;19.80;9.63;;;;;;;-2.37;85.21;99993.53;5137384;27;20222;-52
2021/01/30 08:18:45;;;;;;;19.02;9.35;;;;;;;-2.25;85.06;99996.16;5135884;27;20240;-57
2021/01/30 08:21:20;;;;;;;19.48;9.07;;;;;;;-2.29;84.87;99999.19;5137379;27;20313;-57
2021/01/30 08:23:55;;;;;;;22.77;10.15;;;;;;;-2.18;84.81;99994.25;5135883;27;20242;-56
2021/01/30 08:26:27;;;;;;;17.45;8.73;;;;;;;-2.04;83.09;99992.81;5137371;27;20222;-57
2021/01/30 08:29:08;;;;;;;19.77;8.82;;;;;;;-2.04;83.52;99997.00;5135655;27;20329;-55
2021/01/30 08:31:37;;;;;;;19.00;9.52;;;;;;;-1.79;82.99;99996.44;5137266;27;20194;-57
2021/01/30 08:34:08;;;;;;;21.17;9.98;;;;;;;-1.82;83.29;100004.66;5135247;27;20623;-55
2021/01/30 08:36:38;;;;;;;19.02;8.60;;;;;;;-1.74;83.44;99997.69;5137372;27;20225;-57
2021/01/30 08:39:17;;;;;;;36.33;14.68;;;;;;;-1.66;83.11;100001.69;5135154;27;20678;-57
2021/01/30 08:41:47;;;;;;;16.23;7.93;;;;;;;-1.70;83.13;100004.72;5137328;27;20570;-56
2021/01/30 08:44:29;;;;;;;17.73;9.02;;;;;;;-1.71;83.03;100014.72;5136388;27;20247;-58
2021/01/30 08:47:13;;;;;;;19.55;9.60;;;;;;;-1.85;82.60;100019.56;5135655;27;20223;-57
2021/01/30 08:49:40;;;;;;;21.38;9.75;;;;;;;-1.84;82.71;100020.47;5137064;27;20202;-56
2021/01/30 08:52:23;;;;;;;18.63;9.80;;;;;;;-1.83;83.32;100022.22;5135303;27;20242;-55
2021/01/30 08:54:49;;;;;;;20.17;9.10;;;;;;;-1.72;82.93;100020.53;5136610;27;20293;-56
2021/01/30 08:57:43;;;;;;;26.13;11.32;;;;;;;-1.67;82.63;100025.22;5135249;27;20269;-57
2021/01/30 09:00:16;;;;;;;20.23;9.70;;;;;;;-1.57;82.77;100015.81;5136799;27;20218;-56
2021/01/30 09:02:51;;;;;;;20.02;9.10;;;;;;;-1.48;82.33;100020.72;5135034;27;20230;-57
2021/01/30 09:05:37;;;;;;;18.10;9.23;;;;;;;-1.41;82.15;100020.41;5136608;27;20245;-59
2021/01/30 09:08:40;;;;;;;17.58;9.27;;;;;;;-1.26;81.28;100014.03;5120583;27;20238;-57
2021/01/30 09:11:38;;;;;;;18.52;10.13;;;;;;;-0.94;80.29;100012.19;5136649;27;20198;-58
2021/01/30 09:14:32;;;;;;;17.30;8.93;;;;;;;-1.13;80.33;100007.38;5129598;27;20261;-57
2021/01/30 09:17:35;;;;;;;20.98;8.85;;;;;;;-1.18;80.53;100021.34;5135073;27;20254;-57
2021/01/30 09:20:09;;;;;;;15.18;7.90;;;;;;;-0.91;80.29;100020.03;5136843;27;20218;-58
2021/01/30 09:22:49;;;;;;;25.77;12.50;;;;;;;-0.83;80.55;100025.66;5135177;27;20321;-56
2021/01/30 09:25:22;;;;;;;17.00;9.48;;;;;;;-0.66;79.52;100024.41;5136072;27;20201;-58
2021/01/30 09:27:53;;;;;;;16.95;8.40;;;;;;;-0.64;80.31;100027.03;5134693;27;20234;-57
2021/01/30 09:30:39;;;;;;;18.30;8.85;;;;;;;-0.37;79.74;100027.34;5136723;28;20191;-57
2021/01/30 09:33:12;;;;;;;20.33;9.30;;;;;;;-0.71;78.86;100026.56;5134995;27;20253;-57
2021/01/30 09:35:41;;;;;;;15.40;7.57;;;;;;;-0.53;79.52;100026.19;5136539;28;20191;-55
2021/01/30 09:38:25;;;;;;;13.88;8.52;;;;;;;-0.35;80.69;100029.22;5134163;28;20241;-57
2021/01/30 09:41:20;;;;;;;18.10;8.10;;;;;;;-0.45;79.17;100022.56;5138789;27;20218;-57
2021/01/30 09:43:47;;;;;;;28.40;12.57;;;;;;;-0.44;80.77;100026.91;5139067;27;20234;-57
2021/01/30 09:46:17;;;;;;;18.02;9.20;;;;;;;-0.43;78.12;100021.06;5140262;27;20501;-56
2021/01/30 09:48:44;;;;;;;16.25;7.82;;;;;;;-0.53;77.22;100031.28;5139058;27;20297;-55
2021/01/30 09:51:12;;;;;;;22.35;9.25;;;;;;;-0.29;76.41;100032.19;5140540;27;20198;-57
2021/01/30 09:53:43;;;;;;;13.10;7.32;;;;;;;-0.29;77.17;100033.84;5118308;28;20254;-58
2021/01/30 09:56:12;;;;;;;13.57;7.45;;;;;;;-0.24;76.92;100040.16;5119590;28;20218;-58
2021/01/30 09:58:42;;;;;;;26.10;13.05;;;;;;;-0.03;77.41;100040.84;5118334;28;20544;-54
2021/01/30 10:01:13;;;;;;;15.95;7.53;;;;;;;0.14;75.79;100033.56;5119452;28;20230;-58
2021/01/30 10:03:42;;;;;;;13.80;7.35;;;;;;;0.00;76.67;100040.19;5117943;28;20251;-57
2021/01/30 10:06:15;;;;;;;14.93;8.60;;;;;;;-0.02;75.58;100040.06;5119316;28;20229;-56
2021/01/30 10:08:42;;;;;;;25.77;11.00;;;;;;;0.25;77.13;100047.00;5117949;28;20705;-57
2021/01/30 10:11:14;;;;;;;9.90;5.50;;;;;;;-0.07;74.21;100048.09;5119756;28;20231;-57
2021/01/30 10:13:44;;;;;;;15.15;7.10;;;;;;;-0.06;75.16;100042.28;5117835;28;20242;-57
2021/01/30 10:16:15;;;;;;;17.70;8.98;;;;;;;0.05;75.75;100049.00;5119080;28;20306;-57
2021/01/30 10:18:45;;;;;;;13.75;7.13;;;;;;;-0.04;74.33;100053.41;5117837;28;20249;-58
2021/01/30 10:21:14;;;;;;;17.73;9.00;;;;;;;-0.06;74.75;100054.97;5119276;28;20223;-55
2021/01/30 10:23:44;;;;;;;15.32;7.65;;;;;;;-0.19;74.35;100054.06;5117304;28;20321;-57
2021/01/30 10:26:16;;;;;;;15.82;7.70;;;;;;;-0.34;74.46;100052.91;5118857;28;20241;-58
2021/01/30 10:28:53;;;;;;;22.10;10.25;;;;;;;-0.28;74.72;100056.81;5117728;28;20318;-57
2021/01/30 10:31:24;;;;;;;12.90;6.40;;;;;;;-0.12;74.79;100062.13;5119405;28;20202;-56
2021/01/30 10:33:57;;;;;;;21.17;10.75;;;;;;;-0.01;74.83;100062.13;5117226;28;20246;-57
2021/01/30 10:36:24;;;;;;;38.60;18.38;;;;;;;0.15;76.01;100063.22;5118986;28;20314;-57
2021/01/30 10:38:53;;;;;;;35.63;15.55;;;;;;;0.07;75.92;100057.63;5117219;28;20231;-54
2021/01/30 10:41:21;;;;;;;13.80;6.60;;;;;;;-0.09;74.58;100059.81;5129370;27;20218;-52
2021/01/30 10:43:48;;;;;;;10.73;5.97;;;;;;;-0.11;74.74;100066.41;5137916;27;20357;-55
2021/01/30 10:46:18;;;;;;;12.25;6.38;;;;;;;-0.28;76.09;100058.44;5138522;27;20218;-52
2021/01/30 10:48:46;;;;;;;22.60;10.02;;;;;;;-0.09;75.36;100050.56;5137502;27;20321;-51
2021/01/30 10:51:20;;;;;;;12.90;6.57;;;;;;;-0.15;75.35;100053.50;5138637;27;20578;-55
2021/01/30 10:53:47;;;;;;;12.07;6.57;;;;;;;-0.04;74.48;100061.03;5137091;27;20246;-56
2021/01/30 10:56:18;;;;;;;13.75;6.43;;;;;;;-0.17;74.33;100066.84;5138640;27;20640;-57
2021/01/30 10:58:44;;;;;;;14.77;6.50;;;;;;;0.06;73.94;100065.97;5137311;27;20260;-54
2021/01/30 11:01:14;;;;;;;13.32;6.38;;;;;;;0.09;73.83;100065.31;5139039;27;20717;-55
2021/01/30 11:03:44;;;;;;;14.80;7.00;;;;;;;-0.05;73.41;100066.88;5137251;27;20242;-54
2021/01/30 11:06:19;;;;;;;12.00;6.18;;;;;;;0.07;75.87;100067.78;5139048;27;20214;-54
2021/01/30 11:08:45;;;;;;;13.75;6.80;;;;;;;0.11;74.57;100057.06;5137212;27;20238;-52
2021/01/30 11:11:20;;;;;;;15.40;7.63;;;;;;;0.19;74.01;100067.75;5139099;27;20281;-53
2021/01/30 11:13:47;;;;;;;13.55;6.05;;;;;;;0.18;74.57;100065.09;5137352;27;20240;-50
2021/01/30 11:16:16;;;;;;;12.35;6.70;;;;;;;0.29;74.40;100059.16;5138264;27;20219;-54
2021/01/30 11:18:47;;;;;;;12.02;6.50;;;;;;;0.40;73.84;100060.81;5137118;27;20712;-53
2021/01/30 11:21:27;;;;;;;12.57;6.65;;;;;;;0.11;72.76;100054.50;5139062;27;20218;-54
2021/01/30 11:23:55;;;;;;;12.50;6.45;;;;;;;0.17;73.32;100045.59;5137215;27;20245;-50
2021/01/30 11:26:39;;;;;;;16.52;7.85;;;;;;;0.25;72.80;100052.97;5138341;27;20225;-56
2021/01/30 11:29:22;;;;;;;12.15;5.97;;;;;;;0.23;72.69;100046.03;5137018;27;20230;-56
2021/01/30 11:31:53;;;;;;;13.70;6.18;;;;;;;0.25;73.11;100052.09;5136809;27;20229;-57
2021/01/30 11:34:20;;;;;;;11.73;5.93;;;;;;;0.09;72.96;100051.00;5137753;27;20223;-51
2021/01/30 11:36:47;;;;;;;13.57;6.50;;;;;;;-0.01;72.89;100048.53;5136422;27;20214;-55
2021/01/30 11:39:15;;;;;;;10.15;5.30;;;;;;;0.01;72.51;100044.50;5138246;27;20275;-58
2021/01/30 11:41:42;;;;;;;9.38;4.65;;;;;;;0.03;71.10;100044.56;5138241;27;20218;-52